sensor_id;sensor_type;location;lat;lon;timestamp;temperature;humidity
31653;DHT22;18261;53.648;9.910;2022-12-29T18:00:58;9.30;99.90
31653;DHT22;18261;53.648;9.910;2022-12-29T18:03:30;9.40;99.90
31653;DHT22;18261;53.648;9.910;2022-12-29T18:05:56;9.40;99.90
31653;DHT22;18261;53.648;9.910;2022-12-29T21:24:25;8.70;99.90
31653;DHT22;18261;53.648;9.910;2022-12-29T21:26:50;8.60;99.90
31653;DHT22;18261;53.648;9.910;2022-12-29T21:29:16;8.60;99.90
31653;DHT22;18261;53.648;9.910;2022-12-29T21:31:41;8.50;99.90
31653;DHT22;18261;53.648;9.910;2022-12-29T21:34:10;8.50;99.90
31653;DHT22;18261;53.648;9.910;2022-12-29T21:36:35;8.50;99.90
31653;DHT22;18261;53.648;9.910;2022-12-29T21:39:01;8.40;99.90
31653;DHT22;18261;53.648;9.910;2022-12-29T21:41:30;8.40;99.90
31653;DHT22;18261;53.648;9.910;2022-12-29T21:43:57;8.40;99.90
31653;DHT22;18261;53.648;9.910;2022-12-29T21:46:41;8.30;99.90
31653;DHT22;18261;53.648;9.910;2022-12-29T21:49:09;8.30;99.90
31653;DHT22;18261;53.648;9.910;2022-12-29T21:51:35;8.30;99.90
31653;DHT22;18261;53.648;9.910;2022-12-29T21:54:36;8.20;99.90
31653;DHT22;18261;53.648;9.910;2022-12-29T21:57:20;8.20;99.90
31653;DHT22;18261;53.648;9.910;2022-12-29T22:00:06;8.20;99.90
31653;DHT22;18261;53.648;9.910;2022-12-29T22:02:51;8.10;99.90
31653;DHT22;18261;53.648;9.910;2022-12-29T22:05:35;8.10;99.90
31653;DHT22;18261;53.648;9.910;2022-12-29T22:08:20;8.10;99.90
31653;DHT22;18261;53.648;9.910;2022-12-29T22:11:07;8.10;99.90
31653;DHT22;18261;53.648;9.910;2022-12-29T22:13:52;8.10;99.90
31653;DHT22;18261;53.648;9.910;2022-12-29T22:16:21;7.90;99.90
31653;DHT22;18261;53.648;9.910;2022-12-29T22:18:47;7.90;99.90
31653;DHT22;18261;53.648;9.910;2022-12-29T22:21:12;7.90;99.90
31653;DHT22;18261;53.648;9.910;2022-12-29T22:23:38;8.00;99.90
31653;DHT22;18261;53.648;9.910;2022-12-29T22:26:09;7.90;99.90
31653;DHT22;18261;53.648;9.910;2022-12-29T22:28:39;8.00;99.90
31653;DHT22;18261;53.648;9.910;2022-12-29T22:31:16;8.00;99.90
31653;DHT22;18261;53.648;9.910;2022-12-29T22:33:44;8.00;99.90
31653;DHT22;18261;53.648;9.910;2022-12-29T22:36:10;7.90;99.90
31653;DHT22;18261;53.648;9.910;2022-12-29T22:38:35;8.00;99.90
31653;DHT22;18261;53.648;9.910;2022-12-29T22:41:01;8.00;99.90
31653;DHT22;18261;53.648;9.910;2022-12-29T22:43:26;8.00;99.90
31653;DHT22;18261;53.648;9.910;2022-12-29T22:45:54;8.00;99.90
31653;DHT22;18261;53.648;9.910;2022-12-29T22:48:20;8.00;99.90
31653;DHT22;18261;53.648;9.910;2022-12-29T22:50:45;8.10;99.90
31653;DHT22;18261;53.648;9.910;2022-12-29T22:53:11;8.10;99.90
31653;DHT22;18261;53.648;9.910;2022-12-29T22:55:36;8.10;99.90
31653;DHT22;18261;53.648;9.910;2022-12-29T22:58:02;8.10;99.90
31653;DHT22;18261;53.648;9.910;2022-12-29T23:00:27;8.10;99.90
31653;DHT22;18261;53.648;9.910;2022-12-29T23:02:53;8.30;99.90
31653;DHT22;18261;53.648;9.910;2022-12-29T23:05:18;8.10;99.90
31653;DHT22;18261;53.648;9.910;2022-12-29T23:07:44;8.10;99.90
31653;DHT22;18261;53.648;9.910;2022-12-29T23:10:09;8.00;99.90
31653;DHT22;18261;53.648;9.910;2022-12-29T23:12:35;8.00;99.90
31653;DHT22;18261;53.648;9.910;2022-12-29T23:15:00;8.10;99.90
31653;DHT22;18261;53.648;9.910;2022-12-29T23:17:26;8.00;99.90
31653;DHT22;18261;53.648;9.910;2022-12-29T23:19:52;8.00;99.90
31653;DHT22;18261;53.648;9.910;2022-12-29T23:22:18;8.00;99.90
31653;DHT22;18261;53.648;9.910;2022-12-29T23:24:44;8.10;99.90
31653;DHT22;18261;53.648;9.910;2022-12-29T23:27:09;8.00;99.90
31653;DHT22;18261;53.648;9.910;2022-12-29T23:29:35;8.00;99.90
31653;DHT22;18261;53.648;9.910;2022-12-29T23:32:00;8.00;99.90
31653;DHT22;18261;53.648;9.910;2022-12-29T23:34:26;8.10;99.90
31653;DHT22;18261;53.648;9.910;2022-12-29T23:36:51;8.10;99.90
31653;DHT22;18261;53.648;9.910;2022-12-29T23:39:19;8.10;99.90
31653;DHT22;18261;53.648;9.910;2022-12-29T23:41:45;8.10;99.90
31653;DHT22;18261;53.648;9.910;2022-12-29T23:44:10;8.20;99.90
31653;DHT22;18261;53.648;9.910;2022-12-29T23:46:36;8.20;99.90
31653;DHT22;18261;53.648;9.910;2022-12-29T23:49:02;8.20;99.90
31653;DHT22;18261;53.648;9.910;2022-12-29T23:51:27;8.20;99.90
31653;DHT22;18261;53.648;9.910;2022-12-29T23:53:53;8.30;99.90
31653;DHT22;18261;53.648;9.910;2022-12-29T23:56:21;8.30;99.90
31653;DHT22;18261;53.648;9.910;2022-12-29T23:58:47;8.30;99.90
